Terminal Aerodrome Forecast
Issued by NWS Cleveland, OH

Home | Current Version | Previous Version | Graphics & Text | Print | Product List | Glossary On
Versions: 1 2 3 4 5 6 7 8 9 10 11 12 13 14 15 16 17 18 19 20 21 22
000
FTUS41 KCLE 250500
TAFMFD
TAF
KMFD 250522Z 2506/2606 24012G20KT P6SM VCSH OVC040
      TEMPO 2506/2510 3SM -SHSN BKN025
     FM251100 28009KT P6SM BKN025
     FM251600 33005KT P6SM BKN250
     FM260400 04006KT P6SM OVC090=

USA.gov is the U.S. government's official web portal to all federal, state and local government web resources and services.